Time;durP1;ratioP1;P1;durP2;ratioP2;P2;SDS_P1;SDS_P2;PMS_P1;PMS_P2;Temp;Humidity;BMP_temperature;BMP_pressure;BME280_temperature;BME280_humidity;BME280_pressure;Samples;Min_cycle;Max_cycle;Signal;HPM_P1;HPM_P2
2022/01/15 00:00:34;;;;;;;;;;;-0.10;99.90;;;;;;5036484;28;20366;-65
2022/01/15 00:03:00;;;;;;;;;;;-0.10;99.90;;;;;;5033898;28;19908;-66
2022/01/15 00:05:25;;;;;;;;;;;-0.20;99.90;;;;;;5035239;28;19943;-67
2022/01/15 00:07:51;;;;;;;;;;;-0.30;99.90;;;;;;5035514;28;19991;-65
2022/01/15 00:10:26;;;;;;;;;;;-0.40;99.90;;;;;;5034526;28;19905;-65
2022/01/15 00:12:52;;;;;;;;;;;-0.50;99.90;;;;;;5034057;28;19905;-65
2022/01/15 00:15:25;;;;;;;;;;;-0.60;99.90;;;;;;5033942;28;20000;-65
2022/01/15 00:17:57;;;;;;;;;;;-0.60;99.90;;;;;;5034656;28;19905;-66
2022/01/15 00:20:23;;;;;;;;;;;-0.70;99.90;;;;;;5035116;28;19909;-64
2022/01/15 00:22:49;;;;;;;;;;;-0.70;99.90;;;;;;5035288;28;20282;-66
2022/01/15 00:25:16;;;;;;;;;;;-0.70;99.90;;;;;;5035370;28;19990;-65
2022/01/15 00:27:42;;;;;;;;;;;-0.70;99.90;;;;;;5034948;28;20302;-66
2022/01/15 00:30:08;;;;;;;;;;;-0.70;99.90;;;;;;5034908;28;19905;-66
2022/01/15 00:32:34;;;;;;;;;;;-0.80;99.90;;;;;;5036046;28;19917;-65
2022/01/15 00:35:00;;;;;;;;;;;-0.90;99.90;;;;;;5036944;28;20358;-66
2022/01/15 00:37:27;;;;;;;;;;;-0.90;99.90;;;;;;5034708;28;19955;-66
2022/01/15 00:39:52;;;;;;;;;;;-0.80;99.90;;;;;;5034270;28;19909;-65
2022/01/15 00:42:18;;;;;;;;;;;-0.70;99.90;;;;;;5033920;28;20005;-66
2022/01/15 00:44:49;;;;;;;;;;;-0.70;99.90;;;;;;5036721;28;19912;-65
2022/01/15 00:47:14;;;;;;;;;;;-0.60;99.90;;;;;;5036323;28;19909;-65
2022/01/15 00:49:40;;;;;;;;;;;-0.60;99.90;;;;;;5033377;28;20377;-65
2022/01/15 00:52:05;;;;;;;;;;;-0.60;99.90;;;;;;5035037;28;20381;-66
2022/01/15 00:54:31;;;;;;;;;;;-0.60;99.90;;;;;;5033834;28;19909;-65
2022/01/15 00:56:56;;;;;;;;;;;-0.60;99.90;;;;;;5033591;28;19919;-65
2022/01/15 00:59:22;;;;;;;;;;;-0.60;99.90;;;;;;5032285;28;20266;-66
2022/01/15 01:01:47;;;;;;;;;;;-0.60;99.90;;;;;;5031304;28;20377;-65
2022/01/15 01:04:13;;;;;;;;;;;-0.70;99.90;;;;;;5033496;28;19928;-66
2022/01/15 01:06:38;;;;;;;;;;;-0.70;99.90;;;;;;5032272;28;19905;-68
2022/01/15 01:09:04;;;;;;;;;;;-0.60;99.90;;;;;;5032120;28;20370;-66
2022/01/15 01:11:42;;;;;;;;;;;-0.60;99.90;;;;;;5033363;28;19927;-65
2022/01/15 01:24:47;;;;;;;;;;;-0.50;99.90;;;;;;5033638;28;19912;-65
2022/01/15 01:27:23;;;;;;;;;;;-0.60;99.90;;;;;;5032008;28;19905;-65
2022/01/15 01:30:17;;;;;;;;;;;-0.80;99.90;;;;;;5033426;28;19924;-65
2022/01/15 01:35:08;;;;;;;;;;;-1.00;99.90;;;;;;5033349;28;19917;-66
2022/01/15 01:37:39;;;;;;;;;;;-1.00;99.90;;;;;;5033978;28;20000;-65
2022/01/15 01:40:27;;;;;;;;;;;-1.10;99.90;;;;;;5032998;28;19909;-66
2022/01/15 01:43:58;;;;;;;;;;;-1.10;99.90;;;;;;5035561;28;19948;-66
2022/01/15 01:45:54;;;;;;;;;;;-1.00;99.90;;;;;;5030265;28;20285;-66
2022/01/15 01:48:20;;;;;;;;;;;-1.10;99.90;;;;;;5035542;28;19905;-65
2022/01/15 01:50:45;;;;;;;;;;;-1.10;99.90;;;;;;5033762;28;19927;-64
2022/01/15 01:53:11;;;;;;;;;;;-1.20;99.90;;;;;;5033770;28;20293;-65
2022/01/15 01:55:37;;;;;;;;;;;-1.20;99.90;;;;;;5034057;28;19905;-65
2022/01/15 01:58:02;;;;;;;;;;;-1.20;99.90;;;;;;5033526;28;20277;-66
2022/01/15 02:00:29;;;;;;;;;;;-1.20;99.90;;;;;;5034181;28;19906;-66
2022/01/15 02:02:55;;;;;;;;;;;-1.20;99.90;;;;;;5031865;28;19920;-66
2022/01/15 02:05:21;;;;;;;;;;;-1.30;99.90;;;;;;5033769;28;19962;-66
2022/01/15 02:07:46;;;;;;;;;;;-1.20;99.90;;;;;;5033132;28;19905;-66
2022/01/15 02:10:14;;;;;;;;;;;-1.10;99.90;;;;;;5033350;28;19905;-65
2022/01/15 02:12:40;;;;;;;;;;;-1.10;99.90;;;;;;5032148;28;20354;-65
2022/01/15 02:15:12;;;;;;;;;;;-1.00;99.90;;;;;;5036639;28;20038;-65
2022/01/15 02:17:38;;;;;;;;;;;-1.00;99.90;;;;;;5038856;28;20227;-66
2022/01/15 02:20:23;;;;;;;;;;;-1.00;99.90;;;;;;5038682;28;19937;-66
2022/01/15 02:25:47;;;;;;;;;;;-1.00;99.90;;;;;;5036897;28;19913;-66
2022/01/15 02:28:13;;;;;;;;;;;-1.00;99.90;;;;;;5037006;28;19961;-65
2022/01/15 02:30:39;;;;;;;;;;;-1.10;99.90;;;;;;5037681;28;20047;-65
2022/01/15 02:33:05;;;;;;;;;;;-1.10;99.90;;;;;;5037143;28;19917;-65
2022/01/15 02:35:31;;;;;;;;;;;-1.20;99.90;;;;;;5037445;28;20293;-64
2022/01/15 02:38:03;;;;;;;;;;;-1.20;99.90;;;;;;5037711;28;19905;-65
2022/01/15 02:40:28;;;;;;;;;;;-1.30;99.90;;;;;;5036741;28;20004;-65
2022/01/15 02:42:56;;;;;;;;;;;-1.30;99.90;;;;;;5036547;28;19960;-66
2022/01/15 02:45:22;;;;;;;;;;;-1.30;99.90;;;;;;5036270;28;20271;-65
2022/01/15 02:48:01;;;;;;;;;;;-1.20;99.90;;;;;;5035535;28;20289;-65
2022/01/15 02:50:26;;;;;;;;;;;-1.20;99.90;;;;;;5036799;28;20010;-65
2022/01/15 02:52:52;;;;;;;;;;;-1.10;99.90;;;;;;5036193;28;19980;-65
2022/01/15 02:55:17;;;;;;;;;;;-1.10;99.90;;;;;;5036326;28;19945;-65
2022/01/15 02:57:43;;;;;;;;;;;-1.00;99.90;;;;;;5036633;28;19905;-64
2022/01/15 03:00:09;;;;;;;;;;;-1.10;99.90;;;;;;5036298;28;19939;-65
2022/01/15 03:02:34;;;;;;;;;;;-1.10;99.90;;;;;;5036073;28;19913;-64
2022/01/15 03:05:00;;;;;;;;;;;-1.00;99.90;;;;;;5036347;28;19912;-65
2022/01/15 03:07:25;;;;;;;;;;;-1.10;99.90;;;;;;5036282;28;19905;-65
2022/01/15 03:09:51;;;;;;;;;;;-1.00;99.90;;;;;;5036034;28;20336;-65
2022/01/15 03:12:17;;;;;;;;;;;-1.00;99.90;;;;;;5036210;28;19940;-65
2022/01/15 03:14:44;;;;;;;;;;;-0.90;99.90;;;;;;5036213;28;19905;-65
2022/01/15 03:17:10;;;;;;;;;;;-0.90;99.90;;;;;;5034545;28;19991;-65
2022/01/15 03:19:35;;;;;;;;;;;-1.00;99.90;;;;;;5035661;28;19967;-65
2022/01/15 03:22:01;;;;;;;;;;;-1.10;99.90;;;;;;5035392;28;19994;-66
2022/01/15 03:24:27;;;;;;;;;;;-1.00;99.90;;;;;;5034859;28;20000;-66
2022/01/15 03:26:52;;;;;;;;;;;-1.00;99.90;;;;;;5035097;28;19905;-66
2022/01/15 03:29:18;;;;;;;;;;;-0.90;99.90;;;;;;5035241;28;19905;-66
2022/01/15 03:31:43;;;;;;;;;;;-0.90;99.90;;;;;;5035154;28;19909;-66
2022/01/15 03:34:09;;;;;;;;;;;-0.90;99.90;;;;;;5033768;28;19909;-66
2022/01/15 03:36:34;;;;;;;;;;;-0.90;99.90;;;;;;5035163;28;20250;-66
2022/01/15 03:39:00;;;;;;;;;;;-0.90;99.90;;;;;;5035230;28;19916;-66
2022/01/15 03:41:25;;;;;;;;;;;-0.80;99.90;;;;;;5033481;28;19912;-66
2022/01/15 03:43:51;;;;;;;;;;;-0.90;99.90;;;;;;5033458;28;20337;-65
2022/01/15 03:46:16;;;;;;;;;;;-0.90;99.90;;;;;;5036792;28;19909;-65
2022/01/15 03:48:42;;;;;;;;;;;-0.90;99.90;;;;;;5036231;28;19905;-65
2022/01/15 03:51:07;;;;;;;;;;;-0.90;99.90;;;;;;5035001;28;19905;-65
2022/01/15 03:53:33;;;;;;;;;;;-0.90;99.90;;;;;;5034918;28;19928;-65
2022/01/15 03:55:58;;;;;;;;;;;-1.00;99.90;;;;;;5034267;28;19928;-65
2022/01/15 03:58:24;;;;;;;;;;;-0.90;99.90;;;;;;5035647;28;19909;-65
2022/01/15 04:00:50;;;;;;;;;;;-0.90;99.90;;;;;;5035110;28;19905;-65
2022/01/15 04:03:15;;;;;;;;;;;-0.90;99.90;;;;;;5034274;28;20008;-67
2022/01/15 04:05:41;;;;;;;;;;;-1.00;99.90;;;;;;5033383;28;20285;-65
2022/01/15 04:08:07;;;;;;;;;;;-1.00;99.90;;;;;;5034528;28;19912;-65
2022/01/15 04:10:32;;;;;;;;;;;-1.10;99.90;;;;;;5034541;28;19976;-66
2022/01/15 04:12:58;;;;;;;;;;;-1.10;99.90;;;;;;5032952;28;19913;-66
2022/01/15 04:15:25;;;;;;;;;;;-1.10;99.90;;;;;;5034668;28;19905;-66
2022/01/15 04:17:50;;;;;;;;;;;-1.00;99.90;;;;;;5034291;28;19912;-66
2022/01/15 04:20:19;;;;;;;;;;;-1.10;99.90;;;;;;5034989;28;19905;-65
2022/01/15 04:22:44;;;;;;;;;;;-1.10;99.90;;;;;;5032904;28;19920;-65
2022/01/15 04:25:10;;;;;;;;;;;-1.10;99.90;;;;;;5035143;28;19911;-65
2022/01/15 04:27:37;;;;;;;;;;;-1.10;99.90;;;;;;5034556;28;19959;-65
2022/01/15 04:30:04;;;;;;;;;;;-1.20;99.90;;;;;;5035767;28;19967;-65
2022/01/15 04:32:30;;;;;;;;;;;-1.20;99.90;;;;;;5035174;28;19955;-65
2022/01/15 04:34:56;;;;;;;;;;;-1.20;99.90;;;;;;5034972;28;19912;-65
2022/01/15 04:37:23;;;;;;;;;;;-1.10;99.90;;;;;;5033755;28;19905;-65
2022/01/15 04:39:49;;;;;;;;;;;-1.20;99.90;;;;;;5033982;28;20080;-65
2022/01/15 04:42:15;;;;;;;;;;;-1.20;99.90;;;;;;5033981;28;20003;-65
2022/01/15 04:44:42;;;;;;;;;;;-1.20;99.90;;;;;;5035281;28;20019;-65
2022/01/15 04:47:08;;;;;;;;;;;-1.20;99.90;;;;;;5033837;28;19970;-65
2022/01/15 04:49:33;;;;;;;;;;;-1.20;99.90;;;;;;5033609;28;20365;-66
2022/01/15 04:51:59;;;;;;;;;;;-1.20;99.90;;;;;;5033340;28;19912;-65
2022/01/15 04:54:25;;;;;;;;;;;-1.20;99.90;;;;;;5033536;28;19920;-65
2022/01/15 04:56:50;;;;;;;;;;;-1.20;99.90;;;;;;5033825;28;19911;-65
2022/01/15 04:59:16;;;;;;;;;;;-1.20;99.90;;;;;;5033290;28;19905;-65
2022/01/15 05:01:41;;;;;;;;;;;-1.20;99.90;;;;;;5034185;28;19952;-65
2022/01/15 05:04:07;;;;;;;;;;;-1.10;99.90;;;;;;5033965;28;20326;-65
2022/01/15 05:06:33;;;;;;;;;;;-1.10;99.90;;;;;;5034279;28;19906;-65
2022/01/15 05:09:05;;;;;;;;;;;-1.10;99.90;;;;;;5033876;28;19906;-65
2022/01/15 05:11:48;;;;;;;;;;;-1.00;99.90;;;;;;5034291;28;19905;-65
2022/01/15 05:14:14;;;;;;;;;;;-1.10;99.90;;;;;;5034089;28;19905;-65
2022/01/15 05:16:40;;;;;;;;;;;-1.00;99.90;;;;;;5033957;28;19905;-66
2022/01/15 05:19:06;;;;;;;;;;;-1.00;99.90;;;;;;5033638;28;20370;-65
2022/01/15 05:21:32;;;;;;;;;;;-1.10;99.90;;;;;;5033335;28;19909;-65
2022/01/15 05:23:57;;;;;;;;;;;-1.10;99.90;;;;;;5033918;28;20342;-66
2022/01/15 05:26:23;;;;;;;;;;;-1.20;99.90;;;;;;5034161;28;20263;-66
2022/01/15 05:28:48;;;;;;;;;;;-1.20;99.90;;;;;;5034671;28;20365;-66
2022/01/15 05:31:14;;;;;;;;;;;-1.10;99.90;;;;;;5033924;28;19963;-66
2022/01/15 05:33:39;;;;;;;;;;;-1.10;99.90;;;;;;5033822;28;19959;-66
2022/01/15 05:36:05;;;;;;;;;;;-1.10;99.90;;;;;;5032412;28;19911;-66
2022/01/15 05:38:31;;;;;;;;;;;-1.20;99.90;;;;;;5033428;28;20341;-65
2022/01/15 05:40:56;;;;;;;;;;;-1.30;99.90;;;;;;5033332;28;19905;-66
2022/01/15 05:43:22;;;;;;;;;;;-1.30;99.90;;;;;;5033533;28;19909;-66
2022/01/15 05:45:47;;;;;;;;;;;-1.30;99.90;;;;;;5033540;28;19905;-65
2022/01/15 05:48:13;;;;;;;;;;;-1.30;99.90;;;;;;5033935;28;19912;-65
2022/01/15 05:50:39;;;;;;;;;;;-1.30;99.90;;;;;;5036561;28;20405;-65
2022/01/15 05:53:04;;;;;;;;;;;-1.20;99.90;;;;;;5036779;28;19939;-65
2022/01/15 05:55:30;;;;;;;;;;;-1.20;99.90;;;;;;5036721;28;19912;-65
2022/01/15 05:57:55;;;;;;;;;;;-1.20;99.90;;;;;;5036461;28;19905;-65
2022/01/15 06:00:21;;;;;;;;;;;-1.20;99.90;;;;;;5037442;28;19905;-65
2022/01/15 06:02:46;;;;;;;;;;;-1.20;99.90;;;;;;5036202;28;19909;-65
2022/01/15 06:05:12;;;;;;;;;;;-1.30;99.90;;;;;;5036465;28;19960;-65
2022/01/15 06:07:37;;;;;;;;;;;-1.30;99.90;;;;;;5036451;28;20366;-64
2022/01/15 06:10:03;;;;;;;;;;;-1.20;99.90;;;;;;5036226;28;20007;-64
2022/01/15 06:12:31;;;;;;;;;;;-1.30;99.90;;;;;;5036415;28;19913;-65
2022/01/15 06:14:57;;;;;;;;;;;-1.30;99.90;;;;;;5036178;28;19987;-64
2022/01/15 06:17:23;;;;;;;;;;;-1.30;99.90;;;;;;5034800;28;20000;-65
2022/01/15 06:19:48;;;;;;;;;;;-1.20;99.90;;;;;;5035974;28;19909;-64
2022/01/15 06:22:14;;;;;;;;;;;-1.20;99.90;;;;;;5035957;28;20004;-64
2022/01/15 06:24:39;;;;;;;;;;;-1.20;99.90;;;;;;5036091;28;19924;-65
2022/01/15 06:27:06;;;;;;;;;;;-1.20;99.90;;;;;;5035877;28;19912;-64
2022/01/15 06:29:31;;;;;;;;;;;-1.10;99.90;;;;;;5036155;28;20232;-65
2022/01/15 06:31:56;;;;;;;;;;;-1.10;99.90;;;;;;5036210;28;19916;-66
2022/01/15 06:34:22;;;;;;;;;;;-1.00;99.90;;;;;;5034907;28;19992;-65
2022/01/15 06:36:47;;;;;;;;;;;-1.10;99.90;;;;;;5036146;28;19921;-65
2022/01/15 06:39:13;;;;;;;;;;;-1.10;99.90;;;;;;5034637;28;19909;-65
2022/01/15 06:41:38;;;;;;;;;;;-1.00;99.90;;;;;;5034059;28;20301;-65
2022/01/15 06:44:05;;;;;;;;;;;-1.00;99.90;;;;;;5035670;28;19979;-65
2022/01/15 06:46:31;;;;;;;;;;;-1.00;99.90;;;;;;5035545;28;19905;-65
2022/01/15 06:48:56;;;;;;;;;;;-0.90;99.90;;;;;;5035605;28;19948;-66
2022/01/15 06:51:22;;;;;;;;;;;-0.90;99.90;;;;;;5035775;28;20000;-64
2022/01/15 06:53:47;;;;;;;;;;;-0.90;99.90;;;;;;5035538;28;19905;-66
2022/01/15 06:56:13;;;;;;;;;;;-0.80;99.90;;;;;;5035510;28;19963;-65
2022/01/15 06:58:39;;;;;;;;;;;-0.80;99.90;;;;;;5035533;28;19905;-66
2022/01/15 07:01:04;;;;;;;;;;;-0.80;99.90;;;;;;5034452;28;19909;-66
2022/01/15 07:03:30;;;;;;;;;;;-0.80;99.90;;;;;;5035134;28;20404;-65
2022/01/15 07:05:55;;;;;;;;;;;-0.80;99.90;;;;;;5035150;28;19909;-65
2022/01/15 07:08:21;;;;;;;;;;;-0.80;99.90;;;;;;5035446;28;19999;-66
2022/01/15 07:10:46;;;;;;;;;;;-0.80;99.90;;;;;;5036095;28;19912;-67
2022/01/15 07:13:12;;;;;;;;;;;-0.70;99.90;;;;;;5040987;28;19928;-66
2022/01/15 07:15:37;;;;;;;;;;;-0.70;99.90;;;;;;5036601;28;20281;-66
2022/01/15 07:18:03;;;;;;;;;;;-0.70;99.90;;;;;;5034946;28;19909;-65
2022/01/15 07:20:29;;;;;;;;;;;-0.60;99.90;;;;;;5034803;28;19995;-65
2022/01/15 07:22:54;;;;;;;;;;;-0.70;99.90;;;;;;5034604;28;20307;-65
2022/01/15 07:25:20;;;;;;;;;;;-0.60;99.90;;;;;;5034876;28;19955;-65
2022/01/15 07:27:46;;;;;;;;;;;-0.70;99.90;;;;;;5034633;28;20381;-65
2022/01/15 07:30:13;;;;;;;;;;;-0.60;99.90;;;;;;5034757;28;19909;-66
2022/01/15 07:32:39;;;;;;;;;;;-0.60;99.90;;;;;;5034332;28;19913;-66
2022/01/15 07:35:06;;;;;;;;;;;-0.50;99.90;;;;;;5035007;28;19913;-66
2022/01/15 07:37:32;;;;;;;;;;;-0.60;99.90;;;;;;5033129;28;19944;-66
2022/01/15 07:39:58;;;;;;;;;;;-0.60;99.90;;;;;;5034427;28;19909;-66
2022/01/15 07:42:23;;;;;;;;;;;-0.60;99.90;;;;;;5034546;28;19967;-66
2022/01/15 07:44:49;;;;;;;;;;;-0.60;99.90;;;;;;5033361;28;19912;-66
2022/01/15 07:47:14;;;;;;;;;;;-0.50;99.90;;;;;;5034709;28;20070;-65
2022/01/15 07:49:41;;;;;;;;;;;-0.50;99.90;;;;;;5034914;28;19912;-66
2022/01/15 07:52:07;;;;;;;;;;;-0.50;99.90;;;;;;5034497;28;19951;-62
2022/01/15 07:54:33;;;;;;;;;;;-0.50;99.90;;;;;;5032907;28;19905;-62
2022/01/15 07:56:58;;;;;;;;;;;-0.40;99.90;;;;;;5034474;28;19905;-66
2022/01/15 07:59:24;;;;;;;;;;;-0.40;99.90;;;;;;5034501;28;19905;-65
2022/01/15 08:01:50;;;;;;;;;;;-0.40;99.90;;;;;;5034582;28;20265;-67
2022/01/15 08:04:15;;;;;;;;;;;-0.30;99.90;;;;;;5035886;28;19999;-68
2022/01/15 08:06:41;;;;;;;;;;;-0.30;99.90;;;;;;5035996;28;19905;-69
2022/01/15 08:09:07;;;;;;;;;;;-0.30;99.90;;;;;;5036540;28;19936;-68
2022/01/15 08:11:33;;;;;;;;;;;-0.30;99.90;;;;;;5034065;28;19905;-67
2022/01/15 08:13:59;;;;;;;;;;;-0.30;99.90;;;;;;5034292;28;20358;-70
2022/01/15 08:16:24;;;;;;;;;;;-0.30;99.90;;;;;;5032495;28;20415;-68
2022/01/15 08:18:50;;;;;;;;;;;-0.30;99.90;;;;;;5032400;28;19905;-67
2022/01/15 08:21:15;;;;;;;;;;;-0.30;99.90;;;;;;5032563;28;19995;-67
2022/01/15 08:23:41;;;;;;;;;;;-0.30;99.90;;;;;;5033820;28;20359;-68
2022/01/15 08:26:06;;;;;;;;;;;-0.30;99.90;;;;;;5034332;28;19905;-69
2022/01/15 08:28:32;;;;;;;;;;;-0.20;99.90;;;;;;5033878;28;19905;-67
2022/01/15 08:30:58;;;;;;;;;;;-0.20;99.90;;;;;;5032573;28;19905;-68
2022/01/15 08:33:23;;;;;;;;;;;-0.30;99.90;;;;;;5033621;28;19999;-68
2022/01/15 08:35:49;;;;;;;;;;;-0.30;99.90;;;;;;5034195;28;20416;-68
2022/01/15 08:38:15;;;;;;;;;;;-0.30;99.90;;;;;;5033794;28;19909;-67
2022/01/15 08:40:40;;;;;;;;;;;-0.30;99.90;;;;;;5032503;28;19905;-69
2022/01/15 08:43:06;;;;;;;;;;;-0.30;99.90;;;;;;5033508;28;20007;-67
2022/01/15 08:45:31;;;;;;;;;;;-0.30;99.90;;;;;;5035658;28;19905;-66
2022/01/15 08:47:57;;;;;;;;;;;-0.30;99.90;;;;;;5037682;28;20004;-67
2022/01/15 08:50:23;;;;;;;;;;;-0.30;99.90;;;;;;5036153;28;19912;-67
2022/01/15 08:52:48;;;;;;;;;;;-0.30;99.90;;;;;;5035623;28;20346;-66
2022/01/15 08:55:14;;;;;;;;;;;-0.30;99.90;;;;;;5033319;28;20011;-66
2022/01/15 08:57:40;;;;;;;;;;;-0.30;99.90;;;;;;5034659;28;19911;-67
2022/01/15 09:00:07;;;;;;;;;;;-0.20;99.90;;;;;;5034264;28;19905;-69
2022/01/15 09:02:33;;;;;;;;;;;-0.20;99.90;;;;;;5033126;28;19995;-69
2022/01/15 09:04:58;;;;;;;;;;;-0.20;99.90;;;;;;5033202;28;19948;-69
2022/01/15 09:07:24;;;;;;;;;;;-0.10;99.90;;;;;;5031818;28;19911;-69
2022/01/15 09:09:50;;;;;;;;;;;-0.10;99.90;;;;;;5033640;28;19905;-69
2022/01/15 09:12:17;;;;;;;;;;;-0.10;99.90;;;;;;5031710;28;19905;-69
2022/01/15 09:14:42;;;;;;;;;;;-0.10;99.90;;;;;;5033498;28;19905;-69
2022/01/15 09:17:08;;;;;;;;;;;0.00;99.90;;;;;;5032106;28;20361;-69
2022/01/15 09:19:33;;;;;;;;;;;0.00;99.90;;;;;;5033221;28;19905;-69
2022/01/15 09:22:00;;;;;;;;;;;0.00;99.90;;;;;;5033185;28;19939;-69
2022/01/15 09:24:25;;;;;;;;;;;0.10;99.90;;;;;;5035938;28;20385;-70
2022/01/15 09:32:04;;;;;;;;;;;0.10;99.90;;;;;;5037512;28;19951;-69
2022/01/15 09:34:32;;;;;;;;;;;0.10;99.90;;;;;;5037293;28;19992;-69
2022/01/15 09:36:58;;;;;;;;;;;0.20;99.90;;;;;;5037676;28;20366;-68
2022/01/15 09:39:23;;;;;;;;;;;0.30;99.90;;;;;;5036900;28;19962;-68
2022/01/15 09:41:51;;;;;;;;;;;0.20;99.90;;;;;;5037539;28;19909;-69
2022/01/15 09:44:18;;;;;;;;;;;0.20;99.90;;;;;;5037337;28;19912;-67
2022/01/15 09:46:45;;;;;;;;;;;0.20;99.90;;;;;;5036854;28;19943;-68
2022/01/15 09:49:13;;;;;;;;;;;0.30;99.90;;;;;;5036752;28;20330;-67
2022/01/15 09:51:38;;;;;;;;;;;0.40;99.90;;;;;;5036785;28;19911;-67
2022/01/15 09:54:04;;;;;;;;;;;0.50;99.90;;;;;;5036445;28;20392;-67
2022/01/15 09:56:30;;;;;;;;;;;0.50;99.90;;;;;;5035203;28;19909;-66
2022/01/15 09:58:57;;;;;;;;;;;0.40;99.90;;;;;;5035970;28;19905;-66
2022/01/15 10:01:23;;;;;;;;;;;0.50;99.90;;;;;;5035048;28;19972;-66
2022/01/15 10:03:49;;;;;;;;;;;0.50;99.90;;;;;;5036367;28;19909;-67
2022/01/15 10:06:14;;;;;;;;;;;0.50;99.90;;;;;;5036187;28;19916;-67
2022/01/15 10:08:40;;;;;;;;;;;0.60;99.90;;;;;;5036255;28;19999;-66
2022/01/15 10:11:11;;;;;;;;;;;0.60;99.90;;;;;;5036190;28;19912;-67
2022/01/15 10:13:44;;;;;;;;;;;0.70;99.90;;;;;;5037500;28;19936;-68
2022/01/15 10:16:14;;;;;;;;;;;0.70;99.90;;;;;;5040164;28;20382;-67
2022/01/15 10:18:44;;;;;;;;;;;0.70;99.90;;;;;;5040490;28;19905;-68
2022/01/15 10:21:11;;;;;;;;;;;0.70;99.90;;;;;;5039642;28;19905;-67
2022/01/15 10:23:52;;;;;;;;;;;0.70;99.90;;;;;;5036111;28;20305;-67
2022/01/15 10:26:28;;;;;;;;;;;0.80;99.90;;;;;;5036512;28;19911;-67
2022/01/15 10:28:58;;;;;;;;;;;0.80;99.90;;;;;;5036184;28;19905;-67
2022/01/15 10:31:32;;;;;;;;;;;0.80;99.90;;;;;;5036361;28;20003;-66
2022/01/15 10:33:58;;;;;;;;;;;0.90;99.90;;;;;;5036855;28;19931;-66
2022/01/15 10:36:25;;;;;;;;;;;1.00;99.90;;;;;;5035391;28;19905;-67
2022/01/15 10:38:51;;;;;;;;;;;0.90;99.90;;;;;;5038877;28;19905;-70
2022/01/15 10:41:29;;;;;;;;;;;0.90;99.90;;;;;;5035994;28;19905;-67
2022/01/15 10:43:54;;;;;;;;;;;0.90;99.90;;;;;;5035613;28;19915;-66
2022/01/15 10:46:31;;;;;;;;;;;0.90;99.90;;;;;;5034677;28;19940;-67
2022/01/15 10:48:57;;;;;;;;;;;0.90;99.90;;;;;;5035961;28;19928;-67
2022/01/15 10:51:22;;;;;;;;;;;0.90;99.90;;;;;;5035350;28;20334;-67
2022/01/15 10:53:48;;;;;;;;;;;0.90;99.90;;;;;;5035680;28;19947;-66
2022/01/15 10:56:15;;;;;;;;;;;0.90;99.90;;;;;;5035447;28;19905;-66
2022/01/15 10:58:42;;;;;;;;;;;0.90;99.90;;;;;;5035594;28;19909;-66
2022/01/15 11:01:11;;;;;;;;;;;1.00;99.90;;;;;;5035519;28;19912;-67
2022/01/15 11:03:38;;;;;;;;;;;1.00;99.90;;;;;;5035146;28;20007;-66
2022/01/15 11:06:04;;;;;;;;;;;1.00;99.90;;;;;;5035764;28;19931;-67
2022/01/15 11:08:33;;;;;;;;;;;1.00;99.90;;;;;;5035224;28;19995;-67
2022/01/15 11:11:01;;;;;;;;;;;1.00;99.90;;;;;;5035361;28;19905;-67
2022/01/15 11:13:28;;;;;;;;;;;1.10;99.90;;;;;;5033944;28;19905;-66
2022/01/15 11:15:54;;;;;;;;;;;1.10;99.90;;;;;;5035263;28;19908;-67
2022/01/15 11:18:24;;;;;;;;;;;1.10;99.90;;;;;;5035395;28;19905;-67
2022/01/15 11:20:51;;;;;;;;;;;1.10;99.90;;;;;;5035494;28;19932;-68
2022/01/15 11:23:18;;;;;;;;;;;1.10;99.90;;;;;;5035719;28;19972;-67
2022/01/15 11:25:44;;;;;;;;;;;1.10;99.90;;;;;;5035276;28;19913;-67
2022/01/15 11:28:10;;;;;;;;;;;1.10;99.90;;;;;;5035360;28;19905;-67
2022/01/15 11:30:36;;;;;;;;;;;1.10;99.90;;;;;;5035255;28;19905;-66
2022/01/15 11:33:02;;;;;;;;;;;1.10;99.90;;;;;;5034140;28;20007;-69
2022/01/15 11:35:46;;;;;;;;;;;1.20;99.90;;;;;;5034037;28;19956;-68
2022/01/15 11:38:50;;;;;;;;;;;1.20;99.90;;;;;;5035455;28;19905;-69
2022/01/15 11:41:28;;;;;;;;;;;1.30;99.90;;;;;;4993656;28;20024;-68
2022/01/15 11:43:54;;;;;;;;;;;1.30;99.90;;;;;;4993485;28;19916;-68
2022/01/15 11:46:24;;;;;;;;;;;1.30;99.90;;;;;;5015423;28;19936;-68
2022/01/15 11:48:49;;;;;;;;;;;1.40;99.90;;;;;;5034712;28;19905;-68
2022/01/15 11:51:16;;;;;;;;;;;1.40;99.90;;;;;;5034316;28;20366;-69
2022/01/15 11:53:45;;;;;;;;;;;1.30;99.90;;;;;;5033201;28;19905;-69
2022/01/15 11:56:14;;;;;;;;;;;1.40;99.90;;;;;;5034820;28;19905;-69
2022/01/15 11:58:40;;;;;;;;;;;1.50;99.90;;;;;;5034060;28;20029;-69
2022/01/15 12:01:05;;;;;;;;;;;1.50;99.90;;;;;;5034716;28;19904;-68
2022/01/15 12:03:38;;;;;;;;;;;1.60;99.90;;;;;;5033869;28;19909;-68
2022/01/15 12:06:03;;;;;;;;;;;1.60;99.90;;;;;;5032976;28;19916;-68
2022/01/15 12:08:30;;;;;;;;;;;1.50;99.90;;;;;;5034185;28;19905;-67
2022/01/15 12:10:57;;;;;;;;;;;1.60;99.90;;;;;;5034239;28;19905;-67
2022/01/15 12:13:24;;;;;;;;;;;1.60;99.90;;;;;;5033902;28;19905;-67
2022/01/15 12:16:08;;;;;;;;;;;1.60;99.90;;;;;;5034333;28;20281;-68
2022/01/15 12:18:44;;;;;;;;;;;1.60;99.90;;;;;;5034175;28;19905;-64
2022/01/15 12:21:10;;;;;;;;;;;1.60;99.90;;;;;;5034014;28;20278;-65
2022/01/15 12:23:35;;;;;;;;;;;1.60;99.90;;;;;;5034863;28;19913;-65
2022/01/15 12:26:08;;;;;;;;;;;1.60;99.90;;;;;;5037086;28;19912;-66
2022/01/15 12:28:33;;;;;;;;;;;1.60;99.90;;;;;;5035618;28;20393;-65
2022/01/15 12:30:59;;;;;;;;;;;1.80;99.90;;;;;;5033764;28;19905;-65
2022/01/15 12:33:24;;;;;;;;;;;1.80;99.90;;;;;;5033595;28;19917;-66
2022/01/15 12:35:51;;;;;;;;;;;1.90;99.90;;;;;;5033471;28;20231;-66
2022/01/15 12:38:21;;;;;;;;;;;2.00;99.90;;;;;;5033637;28;20000;-66
2022/01/15 12:40:48;;;;;;;;;;;2.00;99.90;;;;;;5033580;28;19912;-65
2022/01/15 12:43:17;;;;;;;;;;;2.10;99.90;;;;;;5033206;28;19988;-66
2022/01/15 12:45:42;;;;;;;;;;;2.00;99.90;;;;;;5033992;28;19909;-68
2022/01/15 12:48:13;;;;;;;;;;;2.00;99.90;;;;;;5033496;28;19905;-67
2022/01/15 12:50:43;;;;;;;;;;;2.00;99.90;;;;;;5033425;28;19905;-67
2022/01/15 12:53:09;;;;;;;;;;;2.00;99.90;;;;;;5033348;28;19905;-66
2022/01/15 12:55:35;;;;;;;;;;;2.00;99.90;;;;;;5034036;28;19952;-67
2022/01/15 12:58:02;;;;;;;;;;;2.10;99.90;;;;;;5032197;28;19905;-69
2022/01/15 13:00:29;;;;;;;;;;;2.10;99.90;;;;;;5034898;28;20265;-68
2022/01/15 13:03:00;;;;;;;;;;;2.10;99.90;;;;;;5034495;28;19977;-68
2022/01/15 13:05:27;;;;;;;;;;;2.20;99.90;;;;;;5034142;28;19906;-69
2022/01/15 13:07:53;;;;;;;;;;;2.30;99.90;;;;;;5035778;28;19905;-67
2022/01/15 13:10:24;;;;;;;;;;;2.30;99.90;;;;;;5039639;28;20016;-67
2022/01/15 13:12:50;;;;;;;;;;;2.30;99.90;;;;;;5036214;28;19905;-67
2022/01/15 13:15:22;;;;;;;;;;;2.30;99.90;;;;;;5033647;28;19959;-67
2022/01/15 13:17:47;;;;;;;;;;;2.30;99.90;;;;;;5032000;28;19905;-67
2022/01/15 13:20:25;;;;;;;;;;;2.30;99.90;;;;;;5033323;28;19917;-66
2022/01/15 13:22:51;;;;;;;;;;;2.40;99.90;;;;;;5033234;28;20373;-67
2022/01/15 13:25:19;;;;;;;;;;;2.40;99.90;;;;;;5034077;28;19958;-69
2022/01/15 13:27:45;;;;;;;;;;;2.40;99.90;;;;;;5033873;28;20055;-64
2022/01/15 13:30:10;;;;;;;;;;;2.40;99.90;;;;;;5034032;28;19992;-65
2022/01/15 13:32:36;;;;;;;;;;;2.30;99.90;;;;;;5033025;28;19913;-65
2022/01/15 13:35:11;;;;;;;;;;;2.20;99.90;;;;;;5033182;28;20235;-64
2022/01/15 13:37:48;;;;;;;;;;;2.20;99.90;;;;;;5033185;28;20361;-64
2022/01/15 13:40:25;;;;;;;;;;;2.10;99.90;;;;;;5033617;28;19939;-66
2022/01/15 13:42:50;;;;;;;;;;;2.20;99.90;;;;;;5033207;28;19909;-67
2022/01/15 13:45:16;;;;;;;;;;;2.20;99.90;;;;;;5033256;28;19915;-69
2022/01/15 13:47:41;;;;;;;;;;;2.30;99.90;;;;;;5031517;28;19905;-68
2022/01/15 13:53:07;;;;;;;;;;;2.20;99.90;;;;;;5033159;28;19963;-68
2022/01/15 13:55:32;;;;;;;;;;;2.20;99.90;;;;;;5031810;28;19905;-68
2022/01/15 13:58:08;;;;;;;;;;;2.20;99.90;;;;;;5033193;28;19905;-68
2022/01/15 14:00:33;;;;;;;;;;;2.10;99.90;;;;;;5032869;28;20347;-66
2022/01/15 14:03:06;;;;;;;;;;;2.20;99.90;;;;;;5033258;28;19916;-64
2022/01/15 14:05:31;;;;;;;;;;;2.20;99.90;;;;;;5032927;28;19940;-64
2022/01/15 14:07:58;;;;;;;;;;;2.10;99.90;;;;;;5032996;28;19909;-65
2022/01/15 14:10:28;;;;;;;;;;;2.20;99.90;;;;;;5035311;28;20358;-66
2022/01/15 14:13:00;;;;;;;;;;;2.10;99.90;;;;;;5036792;28;19905;-64
2022/01/15 14:15:33;;;;;;;;;;;2.20;99.90;;;;;;5037245;28;19936;-64
2022/01/15 14:18:02;;;;;;;;;;;2.20;99.90;;;;;;5036904;28;19912;-64
2022/01/15 14:23:33;;;;;;;;;;;2.20;99.90;;;;;;5036902;28;19912;-64
2022/01/15 14:26:13;;;;;;;;;;;2.20;99.90;;;;;;5036607;28;19929;-66
2022/01/15 14:28:39;;;;;;;;;;;2.30;99.90;;;;;;5038105;28;19905;-64
2022/01/15 14:31:04;;;;;;;;;;;2.20;99.90;;;;;;5039418;28;19905;-65
2022/01/15 14:33:30;;;;;;;;;;;2.20;99.90;;;;;;5037334;28;19952;-64
2022/01/15 14:35:55;;;;;;;;;;;2.10;99.90;;;;;;5036472;28;19917;-65
2022/01/15 14:38:22;;;;;;;;;;;2.10;99.90;;;;;;5036096;28;19940;-64
2022/01/15 14:40:51;;;;;;;;;;;2.10;99.90;;;;;;5036002;28;19931;-65
2022/01/15 14:43:16;;;;;;;;;;;2.20;99.90;;;;;;5035845;28;19916;-65
2022/01/15 14:45:42;;;;;;;;;;;2.10;99.90;;;;;;5035831;28;19905;-65
2022/01/15 14:48:08;;;;;;;;;;;2.10;99.90;;;;;;5035821;28;20388;-63